createdAt,value
2023-02-15T00:03:39.365Z,5.90
2023-02-15T00:08:42.494Z,5.90
2023-02-15T00:13:45.450Z,5.70
2023-02-15T00:18:53.228Z,5.60
2023-02-15T00:23:55.792Z,5.40
2023-02-15T00:29:00.380Z,5.20
2023-02-15T00:34:13.230Z,5.00
2023-02-15T00:39:17.202Z,4.80
2023-02-15T00:44:22.360Z,4.60
2023-02-15T00:49:26.711Z,4.50
2023-02-15T00:54:38.872Z,4.60
2023-02-15T00:59:41.563Z,4.60
2023-02-15T01:04:46.264Z,4.70
2023-02-15T01:09:49.601Z,4.70
2023-02-15T01:14:55.843Z,4.80
2023-02-15T01:20:00.158Z,4.80
2023-02-15T01:25:03.025Z,4.80
2023-02-15T01:30:06.819Z,4.70
2023-02-15T01:35:11.640Z,4.60
2023-02-15T01:40:26.392Z,4.40
2023-02-15T01:45:30.848Z,4.20
2023-02-15T01:50:38.354Z,4.00
2023-02-15T01:55:48.252Z,4.00
2023-02-15T02:00:51.051Z,3.90
2023-02-15T02:05:58.891Z,3.90
2023-02-15T02:11:01.699Z,4.00
2023-02-15T02:16:15.111Z,4.00
2023-02-15T02:21:48.035Z,4.10
2023-02-15T02:27:19.907Z,4.20
2023-02-15T02:33:14.116Z,4.20
2023-02-15T02:38:28.629Z,4.30
2023-02-15T02:43:37.498Z,4.30
2023-02-15T02:48:41.044Z,4.20
2023-02-15T02:53:45.435Z,4.10
2023-02-15T02:58:51.797Z,4.00
2023-02-15T03:03:58.594Z,3.90
2023-02-15T03:09:10.151Z,3.90
2023-02-15T03:14:19.495Z,4.00
2023-02-15T03:19:26.988Z,4.00
2023-02-15T03:24:36.259Z,4.10
2023-02-15T03:29:39.943Z,4.20
2023-02-15T03:34:42.659Z,4.20
2023-02-15T03:39:55.709Z,4.20
2023-02-15T03:45:06.194Z,4.20
2023-02-15T03:50:15.001Z,4.10
2023-02-15T03:55:26.130Z,3.90
2023-02-15T04:00:29.291Z,3.70
2023-02-15T04:05:32.013Z,3.50
2023-02-15T04:10:37.168Z,3.30
2023-02-15T04:15:40.673Z,3.10
2023-02-15T04:20:45.560Z,3.10
2023-02-15T04:25:49.843Z,3.10
2023-02-15T04:30:54.706Z,3.00
2023-02-15T04:35:58.046Z,2.90
2023-02-15T04:41:02.250Z,2.80
2023-02-15T04:46:05.309Z,2.80
2023-02-15T04:51:08.435Z,2.80
2023-02-15T04:56:21.716Z,2.90
2023-02-15T05:01:24.440Z,2.90
2023-02-15T05:06:27.425Z,3.00
2023-02-15T05:11:35.522Z,3.00
2023-02-15T05:16:38.266Z,3.00
2023-02-15T05:21:44.820Z,3.00
2023-02-15T05:26:49.099Z,3.00
2023-02-15T05:31:51.913Z,2.90
2023-02-15T05:36:54.808Z,2.80
2023-02-15T05:42:02.315Z,2.60
2023-02-15T05:47:05.998Z,2.60
2023-02-15T05:52:09.542Z,2.50
2023-02-15T05:57:13.973Z,2.50
2023-02-15T06:02:16.705Z,2.50
2023-02-15T06:07:19.649Z,2.60
2023-02-15T06:12:24.087Z,2.60
2023-02-15T06:17:26.808Z,2.70
2023-02-15T06:22:32.782Z,2.80
2023-02-15T06:27:36.985Z,2.80
2023-02-15T06:32:39.670Z,2.80
2023-02-15T06:37:42.422Z,2.90
2023-02-15T06:42:46.759Z,2.80
2023-02-15T06:47:52.361Z,2.80
2023-02-15T06:52:58.482Z,2.90
2023-02-15T06:58:02.794Z,2.90
2023-02-15T07:03:05.423Z,3.00
2023-02-15T07:08:11.302Z,3.10
2023-02-15T07:13:18.060Z,3.20
2023-02-15T07:18:20.856Z,3.20
2023-02-15T07:23:23.567Z,3.30
2023-02-15T07:28:33.858Z,3.40
2023-02-15T07:33:36.937Z,3.50
2023-02-15T07:38:42.010Z,3.80
2023-02-15T07:43:49.501Z,4.30
2023-02-15T07:48:52.081Z,5.00
2023-02-15T07:53:54.997Z,5.90
2023-02-15T07:58:59.237Z,6.70
2023-02-15T08:04:02.440Z,7.30
2023-02-15T08:09:10.345Z,7.80
2023-02-15T08:14:15.465Z,8.30
2023-02-15T08:19:20.243Z,8.70
2023-02-15T08:24:25.106Z,9.10
2023-02-15T08:29:30.754Z,9.60
2023-02-15T08:34:38.459Z,9.90
2023-02-15T08:39:42.281Z,10.10
2023-02-15T08:44:50.596Z,10.20
2023-02-15T08:49:53.177Z,10.20
2023-02-15T08:55:05.004Z,10.20
2023-02-15T09:00:11.710Z,10.40
2023-02-15T09:05:15.669Z,10.70
2023-02-15T09:10:18.807Z,11.20
2023-02-15T09:15:25.326Z,11.60
2023-02-15T09:20:28.198Z,12.00
2023-02-15T09:25:35.972Z,12.20
2023-02-15T09:30:42.551Z,12.40
2023-02-15T09:35:46.286Z,12.70
2023-02-15T09:41:14.211Z,12.90
2023-02-15T09:46:47.012Z,13.00
2023-02-15T09:52:23.145Z,13.20
2023-02-15T09:57:39.316Z,13.20
2023-02-15T10:03:19.368Z,13.30
2023-02-15T10:08:42.685Z,13.40
2023-02-15T10:13:58.615Z,13.50
2023-02-15T10:19:15.030Z,13.70
2023-02-15T10:24:40.784Z,14.00
2023-02-15T10:29:53.871Z,14.30
2023-02-15T10:35:13.601Z,14.50
2023-02-15T10:40:28.539Z,14.70
2023-02-15T10:45:37.183Z,15.00
2023-02-15T10:50:52.736Z,15.40
2023-02-15T10:56:10.936Z,15.70
2023-02-15T11:01:20.592Z,16.00
2023-02-15T11:06:27.390Z,16.30
2023-02-15T11:11:39.874Z,16.50
2023-02-15T11:16:45.713Z,16.60
2023-02-15T11:21:56.121Z,16.70
2023-02-15T11:27:07.712Z,16.70
2023-02-15T11:32:26.561Z,16.70
2023-02-15T11:37:37.259Z,16.80
2023-02-15T11:42:43.222Z,16.80
2023-02-15T11:47:46.036Z,16.90
2023-02-15T11:52:51.173Z,16.90
2023-02-15T11:58:00.701Z,16.90
2023-02-15T12:03:11.186Z,17.00
2023-02-15T12:08:18.674Z,17.10
2023-02-15T12:13:27.278Z,17.20
2023-02-15T12:18:39.977Z,17.40
2023-02-15T12:23:51.608Z,17.50
2023-02-15T12:29:01.064Z,17.40
2023-02-15T12:34:14.313Z,17.30
2023-02-15T12:39:24.218Z,17.20
2023-02-15T12:44:33.308Z,17.20
2023-02-15T12:49:40.090Z,17.30
2023-02-15T12:54:48.848Z,17.30
2023-02-15T12:59:52.869Z,17.30
2023-02-15T13:04:57.071Z,17.30
2023-02-15T13:10:01.542Z,17.30
2023-02-15T13:15:04.837Z,17.40
2023-02-15T13:20:21.107Z,17.50
2023-02-15T13:25:29.602Z,17.80
2023-02-15T13:30:34.968Z,17.90
2023-02-15T13:35:44.069Z,17.80
2023-02-15T13:40:57.143Z,17.60
2023-02-15T13:46:12.673Z,17.40
2023-02-15T13:51:30.644Z,17.20
2023-02-15T13:56:50.149Z,17.10
2023-02-15T14:01:58.496Z,16.90
2023-02-15T14:07:21.124Z,16.80
2023-02-15T14:12:44.959Z,16.50
2023-02-15T14:17:59.865Z,16.20
2023-02-15T14:23:13.371Z,15.90
2023-02-15T14:28:29.305Z,15.60
2023-02-15T14:33:44.217Z,15.20
2023-02-15T14:38:58.542Z,15.00
2023-02-15T14:44:22.573Z,14.70
2023-02-15T14:49:29.863Z,14.60
2023-02-15T14:54:50.783Z,14.40
2023-02-15T14:59:58.292Z,14.40
2023-02-15T15:05:07.632Z,14.30
2023-02-15T15:10:36.669Z,14.30
2023-02-15T15:15:48.655Z,14.20
2023-02-15T15:20:53.411Z,14.10
2023-02-15T15:26:30.463Z,14.00
2023-02-15T15:31:39.004Z,13.90
2023-02-15T15:37:16.682Z,13.90
2023-02-15T15:42:32.045Z,13.70
2023-02-15T15:48:01.953Z,13.60
2023-02-15T15:53:21.480Z,13.50
2023-02-15T15:58:25.393Z,13.40
2023-02-15T16:03:30.504Z,13.20
2023-02-15T16:08:35.683Z,13.10
2023-02-15T16:13:45.553Z,13.00
2023-02-15T16:18:52.747Z,12.90
2023-02-15T16:24:19.839Z,12.80
2023-02-15T16:29:27.809Z,12.60
2023-02-15T16:34:54.503Z,12.50
2023-02-15T16:39:57.590Z,12.40
2023-02-15T16:45:07.796Z,12.20
2023-02-15T16:50:20.250Z,12.10
2023-02-15T16:55:24.113Z,11.90
2023-02-15T17:00:29.501Z,11.80
2023-02-15T17:05:34.735Z,11.60
2023-02-15T17:10:39.424Z,11.50
2023-02-15T17:15:43.376Z,11.40
2023-02-15T17:20:48.680Z,11.30
2023-02-15T17:25:51.377Z,11.30
2023-02-15T17:30:55.790Z,11.20
2023-02-15T17:36:10.106Z,11.10
2023-02-15T17:41:12.505Z,11.00
2023-02-15T17:46:15.694Z,10.90
2023-02-15T17:51:20.534Z,10.80
2023-02-15T17:56:22.840Z,10.80
2023-02-15T18:01:25.246Z,10.70
2023-02-15T18:06:29.525Z,10.60
2023-02-15T18:11:33.047Z,10.60
2023-02-15T18:16:37.576Z,10.60
2023-02-15T18:21:41.438Z,10.60
2023-02-15T18:26:43.782Z,10.60
2023-02-15T18:31:54.153Z,10.60
2023-02-15T18:36:59.447Z,10.60
2023-02-15T18:42:01.738Z,10.60
2023-02-15T18:47:06.403Z,10.50
2023-02-15T18:52:16.032Z,10.50
2023-02-15T18:57:18.432Z,10.40
2023-02-15T19:02:21.037Z,10.40
2023-02-15T19:07:26.729Z,10.40
2023-02-15T19:12:29.402Z,10.30
2023-02-15T19:17:33.005Z,10.30
2023-02-15T19:22:36.818Z,10.30
2023-02-15T19:27:39.172Z,10.30
2023-02-15T19:32:41.494Z,10.30
2023-02-15T19:37:49.088Z,10.20
2023-02-15T19:42:53.100Z,10.20
2023-02-15T19:47:56.015Z,10.20
2023-02-15T19:53:00.083Z,10.10
2023-02-15T19:58:04.407Z,10.10
2023-02-15T20:03:06.826Z,10.00
2023-02-15T20:08:16.700Z,10.00
2023-02-15T20:13:20.270Z,10.00
2023-02-15T20:18:22.946Z,9.90
2023-02-15T20:23:30.920Z,9.90
2023-02-15T20:28:33.676Z,9.90
2023-02-15T20:33:36.073Z,9.80
2023-02-15T20:38:39.822Z,9.80
2023-02-15T20:43:42.182Z,9.80
2023-02-15T20:48:44.661Z,9.70
2023-02-15T20:53:49.040Z,9.70
2023-02-15T20:58:52.425Z,9.70
2023-02-15T21:03:54.891Z,9.70
2023-02-15T21:08:58.725Z,9.70
2023-02-15T21:14:01.019Z,9.70
2023-02-15T21:19:07.211Z,9.70
2023-02-15T21:24:15.811Z,9.70
2023-02-15T21:29:19.082Z,9.80
2023-02-15T21:34:21.444Z,9.80
2023-02-15T21:39:27.340Z,9.80
2023-02-15T21:44:29.668Z,9.80
2023-02-15T21:49:31.979Z,9.80
2023-02-15T21:54:35.873Z,9.70
2023-02-15T21:59:38.288Z,9.70
2023-02-15T22:04:40.562Z,9.70
2023-02-15T22:09:47.576Z,9.70
2023-02-15T22:14:53.083Z,9.60
2023-02-15T22:19:56.776Z,9.60
2023-02-15T22:25:00.627Z,9.50
2023-02-15T22:30:04.063Z,9.50
2023-02-15T22:35:12.097Z,9.40
2023-02-15T22:40:18.334Z,9.50
2023-02-15T22:45:22.515Z,9.40
2023-02-15T22:50:27.256Z,9.40
2023-02-15T22:55:36.287Z,9.40
2023-02-15T23:00:40.018Z,9.40
2023-02-15T23:05:42.353Z,9.30
2023-02-15T23:10:49.622Z,9.30
2023-02-15T23:15:54.580Z,9.30
2023-02-15T23:20:59.458Z,9.20
2023-02-15T23:26:05.422Z,9.10
2023-02-15T23:31:16.276Z,9.10
2023-02-15T23:36:28.562Z,9.00
2023-02-15T23:41:32.475Z,8.90
2023-02-15T23:46:39.766Z,8.80
2023-02-15T23:51:42.646Z,8.70
2023-02-15T23:56:50.208Z,8.60
